Time;durP1;ratioP1;P1;durP2;ratioP2;P2;SDS_P1;SDS_P2;PMS_P1;PMS_P2;Temp;Humidity;BMP_temperature;BMP_pressure;BME280_temperature;BME280_humidity;BME280_pressure;Samples;Min_cycle;Max_cycle;Signal;HPM_P1;HPM_P2
2023/04/07 00:00:44;;;;;;;;;;;;;;;2.71;100.00;100163.19;5552401;32;34296;-70
2023/04/07 00:03:47;;;;;;;;;;;;;;;2.67;100.00;100167.00;5566319;32;34772;-68
2023/04/07 00:06:50;;;;;;;;;;;;;;;2.62;100.00;100167.34;5565951;32;35054;-68
2023/04/07 00:09:53;;;;;;;;;;;;;;;2.58;100.00;100165.94;5565996;32;34920;-67
2023/04/07 00:12:55;;;;;;;;;;;;;;;2.57;100.00;100165.13;5566256;32;34216;-68
2023/04/07 00:15:58;;;;;;;;;;;;;;;2.60;100.00;100174.53;5565815;32;34114;-68
2023/04/07 00:19:00;;;;;;;;;;;;;;;2.57;100.00;100161.66;5565670;32;34805;-67
2023/04/07 00:22:03;;;;;;;;;;;;;;;2.53;100.00;100158.47;5566145;32;34603;-68
2023/04/07 00:25:06;;;;;;;;;;;;;;;2.57;100.00;100151.19;5554827;32;34129;-67
2023/04/07 00:28:08;;;;;;;;;;;;;;;2.59;100.00;100146.66;5555177;32;34252;-69
2023/04/07 00:31:11;;;;;;;;;;;;;;;2.62;100.00;100154.25;5568647;32;34147;-68
2023/04/07 00:34:14;;;;;;;;;;;;;;;2.62;100.00;100149.88;5568620;32;34331;-67
2023/04/07 00:37:18;;;;;;;;;;;;;;;2.65;100.00;100145.34;5568468;32;34627;-68
2023/04/07 00:40:25;;;;;;;;;;;;;;;2.57;100.00;100143.31;5568539;32;34174;-68
2023/04/07 00:43:27;;;;;;;;;;;;;;;2.71;100.00;100144.88;5568342;32;33869;-67
2023/04/07 00:46:30;;;;;;;;;;;;;;;2.61;100.00;100139.53;5568331;32;34946;-68
2023/04/07 00:49:35;;;;;;;;;;;;;;;2.70;100.00;100146.66;5568249;32;35081;-67
2023/04/07 00:52:39;;;;;;;;;;;;;;;2.73;100.00;100142.94;5568390;32;34070;-67
2023/04/07 00:55:41;;;;;;;;;;;;;;;2.72;100.00;100139.47;5568500;32;33909;-68
2023/04/07 00:58:44;;;;;;;;;;;;;;;2.78;100.00;100151.25;5568727;32;34378;-68
2023/04/07 01:02:05;;;;;;;;;;;;;;;2.80;100.00;100141.50;5554487;32;34357;-68
2023/04/07 01:05:14;;;;;;;;;;;;;;;2.77;100.00;100141.72;5568361;32;33885;-68
2023/04/07 01:08:20;;;;;;;;;;;;;;;2.76;100.00;100140.88;5568664;32;34854;-68
2023/04/07 01:11:24;;;;;;;;;;;;;;;2.79;100.00;100138.03;5568233;32;34001;-67
2023/04/07 01:14:31;;;;;;;;;;;;;;;2.69;100.00;100129.25;5568202;32;34999;-67
2023/04/07 01:17:36;;;;;;;;;;;;;;;2.68;100.00;100119.75;5554500;32;34048;-68
2023/04/07 01:20:42;;;;;;;;;;;;;;;2.67;100.00;100125.09;5568046;32;34904;-68
2023/04/07 01:24:02;;;;;;;;;;;;;;;2.68;100.00;100124.97;5568208;32;34077;-68
2023/04/07 01:27:14;;;;;;;;;;;;;;;2.68;100.00;100116.28;5567968;32;34823;-67
2023/04/07 01:30:18;;;;;;;;;;;;;;;2.79;100.00;100119.72;5568035;32;34539;-67
2023/04/07 01:33:20;;;;;;;;;;;;;;;2.78;100.00;100114.59;5567668;32;33850;-67
2023/04/07 01:36:27;;;;;;;;;;;;;;;2.78;100.00;100122.44;5567737;32;34742;-68
2023/04/07 01:39:29;;;;;;;;;;;;;;;2.75;100.00;100117.47;5568171;32;34425;-68
2023/04/07 01:42:33;;;;;;;;;;;;;;;2.77;100.00;100118.16;5554094;32;34732;-68
2023/04/07 01:45:36;;;;;;;;;;;;;;;2.76;100.00;100109.47;5567731;32;34414;-67
2023/04/07 01:48:40;;;;;;;;;;;;;;;2.79;100.00;100111.84;5568289;32;34484;-68
2023/04/07 01:51:43;;;;;;;;;;;;;;;2.85;100.00;100106.13;5567909;32;34375;-68
2023/04/07 01:54:47;;;;;;;;;;;;;;;2.78;100.00;100112.78;5568062;32;34613;-67
2023/04/07 01:57:52;;;;;;;;;;;;;;;2.84;100.00;100114.94;5568000;32;34142;-67
2023/04/07 02:00:56;;;;;;;;;;;;;;;2.78;100.00;100114.59;5567876;32;34143;-68
2023/04/07 02:04:16;;;;;;;;;;;;;;;2.76;100.00;100112.06;5567897;32;34076;-70
2023/04/07 02:07:21;;;;;;;;;;;;;;;2.83;100.00;100102.78;5567777;32;34899;-68
2023/04/07 02:10:25;;;;;;;;;;;;;;;2.85;100.00;100107.91;5567859;32;34721;-68
2023/04/07 02:13:29;;;;;;;;;;;;;;;2.77;100.00;100113.75;5554366;32;34799;-69
2023/04/07 02:16:32;;;;;;;;;;;;;;;2.78;100.00;100112.78;5554243;32;34172;-69
2023/04/07 02:19:35;;;;;;;;;;;;;;;2.64;100.00;100107.84;5554060;32;34102;-68
2023/04/07 02:22:38;;;;;;;;;;;;;;;2.62;100.00;100110.59;5567585;32;35075;-67
2023/04/07 02:25:41;;;;;;;;;;;;;;;2.63;100.00;100107.00;5567598;32;34280;-67
2023/04/07 02:28:43;;;;;;;;;;;;;;;2.66;100.00;100108.56;5567981;32;33849;-67
2023/04/07 02:31:46;;;;;;;;;;;;;;;2.63;100.00;100107.00;5567585;32;34067;-68
2023/04/07 02:34:48;;;;;;;;;;;;;;;2.72;100.00;100104.59;5567472;32;34057;-67
2023/04/07 02:37:51;;;;;;;;;;;;;;;2.81;100.00;100107.31;5567429;32;34155;-68
2023/04/07 02:40:54;;;;;;;;;;;;;;;2.70;100.00;100112.59;5567407;32;34400;-67
2023/04/07 02:43:56;;;;;;;;;;;;;;;2.66;100.00;100105.13;5567331;32;34768;-68
2023/04/07 02:46:59;;;;;;;;;;;;;;;2.76;100.00;100106.84;5567285;32;34081;-68
2023/04/07 02:50:02;;;;;;;;;;;;;;;2.90;100.00;100101.34;5567294;32;34253;-67
2023/04/07 02:53:07;;;;;;;;;;;;;;;2.82;100.00;100116.00;5567270;32;32860;-68
2023/04/07 02:56:10;;;;;;;;;;;;;;;2.83;100.00;100109.81;5567229;32;34585;-68
2023/04/07 02:59:13;;;;;;;;;;;;;;;2.77;100.00;100105.88;5567207;32;34212;-68
2023/04/07 03:02:16;;;;;;;;;;;;;;;2.73;100.00;100099.25;5567180;32;34687;-68
2023/04/07 03:05:18;;;;;;;;;;;;;;;2.76;100.00;100101.59;5567045;32;34825;-67
2023/04/07 03:08:21;;;;;;;;;;;;;;;2.84;100.00;100101.00;5567145;32;34048;-68
2023/04/07 03:11:24;;;;;;;;;;;;;;;2.81;100.00;100101.25;5566998;32;34148;-67
2023/04/07 03:14:26;;;;;;;;;;;;;;;2.84;100.00;100108.84;5566980;32;34777;-68
2023/04/07 03:17:30;;;;;;;;;;;;;;;2.76;100.00;100104.22;5566976;32;34198;-68
2023/04/07 03:20:33;;;;;;;;;;;;;;;2.84;100.00;100093.97;5566939;32;34408;-68
2023/04/07 03:23:36;;;;;;;;;;;;;;;2.88;100.00;100092.75;5553395;32;34511;-67
2023/04/07 03:26:38;;;;;;;;;;;;;;;2.80;100.00;100102.22;5566617;32;34815;-67
2023/04/07 03:29:43;;;;;;;;;;;;;;;2.85;100.00;100106.13;5566714;32;34778;-68
2023/04/07 03:32:46;;;;;;;;;;;;;;;2.91;100.00;100105.59;5566767;32;33994;-68
2023/04/07 03:35:49;;;;;;;;;;;;;;;2.85;100.00;100105.28;5566632;32;33946;-68
2023/04/07 03:38:52;;;;;;;;;;;;;;;2.83;100.00;100099.31;5566369;31;34864;-68
2023/04/07 03:41:56;;;;;;;;;;;;;;;2.78;100.00;100102.31;5566460;32;33900;-68
2023/04/07 03:45:00;;;;;;;;;;;;;;;2.78;100.00;100104.09;5566562;32;34304;-67
2023/04/07 03:48:04;;;;;;;;;;;;;;;2.88;100.00;100103.22;5567660;31;34347;-68
2023/04/07 03:51:07;;;;;;;;;;;;;;;2.88;100.00;100103.22;5566238;32;34227;-68
2023/04/07 03:54:10;;;;;;;;;;;;;;;2.79;100.00;100103.16;5569448;31;35167;-68
2023/04/07 03:57:13;;;;;;;;;;;;;;;2.88;100.00;100107.63;5563441;31;34208;-68
2023/04/07 04:00:19;;;;;;;;;;;;;;;2.74;100.00;100115.78;5570673;31;34511;-68
2023/04/07 04:03:26;;;;;;;;;;;;;;;2.83;100.00;100112.41;5574853;31;34683;-68
2023/04/07 04:06:30;;;;;;;;;;;;;;;2.71;100.00;100108.19;5571403;31;34052;-69
2023/04/07 04:09:34;;;;;;;;;;;;;;;2.84;100.00;100111.47;5568505;32;33656;-69
2023/04/07 04:12:37;;;;;;;;;;;;;;;2.85;100.00;100113.97;5572040;31;34250;-68
2023/04/07 04:15:41;;;;;;;;;;;;;;;2.74;100.00;100121.03;5574463;31;34870;-68
2023/04/07 04:18:46;;;;;;;;;;;;;;;2.79;100.00;100127.56;5569403;31;34151;-68
2023/04/07 04:21:52;;;;;;;;;;;;;;;2.89;100.00;100131.09;5578590;31;34106;-68
2023/04/07 04:24:55;;;;;;;;;;;;;;;2.84;100.00;100135.87;5575953;31;34927;-68
2023/04/07 04:27:59;;;;;;;;;;;;;;;2.80;100.00;100137.09;5568559;32;34107;-67
2023/04/07 04:31:01;;;;;;;;;;;;;;;2.73;100.00;100135.06;5577503;31;34252;-67
2023/04/07 04:34:07;;;;;;;;;;;;;;;2.78;100.00;100136.38;5574657;31;34775;-68
2023/04/07 04:37:10;;;;;;;;;;;;;;;2.91;100.00;100141.44;5564926;32;34767;-68
2023/04/07 04:40:16;;;;;;;;;;;;;;;2.84;100.00;100135.87;5568538;32;34646;-68
2023/04/07 04:43:20;;;;;;;;;;;;;;;3.00;100.00;100133.66;5568325;32;34031;-68
2023/04/07 04:46:25;;;;;;;;;;;;;;;3.01;100.00;100137.12;5568469;32;33771;-68
2023/04/07 04:49:28;;;;;;;;;;;;;;;3.04;100.00;100139.50;5554944;32;33917;-68
2023/04/07 04:52:34;;;;;;;;;;;;;;;3.06;100.00;100146.28;5568481;32;34113;-68
2023/04/07 04:55:39;;;;;;;;;;;;;;;3.12;100.00;100149.34;5579164;31;34124;-68
2023/04/07 04:58:45;;;;;;;;;;;;;;;3.13;100.00;100140.53;5568655;32;34129;-69
2023/04/07 05:01:49;;;;;;;;;;;;;;;3.17;100.00;100134.91;5568452;32;34691;-68
2023/04/07 05:04:52;;;;;;;;;;;;;;;3.15;100.00;100154.34;5568127;32;33604;-68
2023/04/07 05:07:55;;;;;;;;;;;;;;;3.05;100.00;100157.69;5568026;32;35084;-68
2023/04/07 05:11:00;;;;;;;;;;;;;;;3.06;100.00;100159.37;5567974;31;34332;-68
2023/04/07 05:14:03;;;;;;;;;;;;;;;3.14;100.00;100157.94;5568370;32;34706;-68
2023/04/07 05:17:06;;;;;;;;;;;;;;;3.16;100.00;100156.81;5568292;32;34754;-68
2023/04/07 05:20:09;;;;;;;;;;;;;;;3.23;100.00;100158.00;5568454;32;34271;-68
2023/04/07 05:23:13;;;;;;;;;;;;;;;3.47;100.00;100163.00;5568155;31;34593;-68
2023/04/07 05:26:17;;;;;;;;;;;;;;;3.52;100.00;100165.25;5567918;32;34606;-68
2023/04/07 05:29:20;;;;;;;;;;;;;;;3.63;100.00;100171.22;5568326;31;34261;-68
2023/04/07 05:32:25;;;;;;;;;;;;;;;3.70;100.00;100168.94;5568195;32;34103;-68
2023/04/07 05:35:29;;;;;;;;;;;;;;;3.73;100.00;100169.50;5568057;32;34832;-68
2023/04/07 05:38:32;;;;;;;;;;;;;;;3.77;100.00;100178.81;5568048;32;33744;-68
2023/04/07 05:41:37;;;;;;;;;;;;;;;3.72;100.00;100182.75;5568341;32;34175;-68
2023/04/07 05:44:39;;;;;;;;;;;;;;;3.76;100.00;100177.13;5573228;31;34208;-69
2023/04/07 05:47:42;;;;;;;;;;;;;;;3.84;100.00;100182.56;5587467;31;33860;-68
2023/04/07 05:50:45;;;;;;;;;;;;;;;3.93;100.00;100186.19;5587254;31;34188;-68
2023/04/07 05:53:49;;;;;;;;;;;;;;;3.97;100.00;100178.91;5587775;31;34799;-68
2023/04/07 05:56:55;;;;;;;;;;;;;;;3.94;100.00;100190.47;5587355;31;34380;-68
2023/04/07 05:59:58;;;;;;;;;;;;;;;3.98;100.00;100180.53;5587358;31;34265;-68
2023/04/07 06:03:01;;;;;;;;;;;;;;;3.91;100.00;100178.47;5572369;31;34104;-69
2023/04/07 06:06:05;;;;;;;;;;;;;;;4.01;100.00;100167.19;5568036;31;34878;-69
2023/04/07 06:09:07;;;;;;;;;;;;;;;3.99;100.00;100182.22;5567718;32;34802;-68
2023/04/07 06:12:11;;;;;;;;;;;;;;;4.06;100.00;100183.37;5567716;31;34195;-68
2023/04/07 06:15:13;;;;;;;;;;;;;;;4.08;100.00;100176.19;5566744;32;34756;-68
2023/04/07 06:18:17;;;;;;;;;;;;;;;3.87;100.00;100184.09;5567805;32;34397;-68
2023/04/07 06:21:19;;;;;;;;;;;;;;;4.05;100.00;100171.19;5566862;32;34089;-68
2023/04/07 06:24:24;;;;;;;;;;;;;;;4.11;100.00;100183.81;5566786;32;34314;-68
2023/04/07 06:27:26;;;;;;;;;;;;;;;4.06;100.00;100178.94;5567177;32;34657;-68
2023/04/07 06:30:30;;;;;;;;;;;;;;;4.19;100.00;100181.34;5567656;32;34049;-69
2023/04/07 06:33:32;;;;;;;;;;;;;;;4.17;100.00;100184.09;5567468;32;34781;-69
2023/04/07 06:36:36;;;;;;;;;;;;;;;3.73;100.00;100194.91;5566598;32;34931;-68
2023/04/07 06:39:39;;;;;;;;;;;;;;;3.42;100.00;100199.25;5566956;31;34074;-67
2023/04/07 06:42:41;;;;;;;;;;;;;;;3.36;100.00;100200.59;5567291;32;35027;-69
2023/04/07 06:45:44;;;;;;;;;;;;;;;3.34;100.00;100199.06;5567422;32;34071;-68
2023/04/07 06:48:47;;;;;;;;;;;;;;;3.24;100.00;100209.47;5567246;32;32335;-68
2023/04/07 06:51:49;;;;;;;;;;;;;;;3.33;100.00;100207.88;5553521;32;34684;-69
2023/04/07 06:54:52;;;;;;;;;;;;;;;3.28;100.00;100210.06;5567348;32;34283;-70
2023/04/07 06:57:55;;;;;;;;;;;;;;;3.21;100.00;100211.50;5566770;31;34691;-70
2023/04/07 07:00:59;;;;;;;;;;;;;;;3.29;100.00;100212.53;5579256;31;34650;-69
2023/04/07 07:04:02;;;;;;;;;;;;;;;3.26;100.00;100218.03;5586728;31;34270;-69
2023/04/07 07:07:05;;;;;;;;;;;;;;;3.19;100.00;100209.03;5586643;31;34872;-70
2023/04/07 07:10:09;;;;;;;;;;;;;;;3.16;100.00;100216.28;5586466;31;33862;-70
2023/04/07 07:13:12;;;;;;;;;;;;;;;3.25;100.00;100218.97;5572650;31;34162;-70
2023/04/07 07:16:14;;;;;;;;;;;;;;;3.32;100.00;100227.19;5586569;31;34880;-70
2023/04/07 07:19:17;;;;;;;;;;;;;;;3.46;100.00;100240.84;5586472;31;34338;-69
2023/04/07 07:22:19;;;;;;;;;;;;;;;3.37;100.00;100244.22;5572844;31;33910;-69
2023/04/07 07:25:22;;;;;;;;;;;;;;;3.32;100.00;100251.63;5586528;31;33916;-69
2023/04/07 07:28:25;;;;;;;;;;;;;;;3.21;100.00;100249.03;5586127;31;35018;-70
2023/04/07 07:31:28;;;;;;;;;;;;;;;3.35;100.00;100261.00;5572500;31;34761;-69
2023/04/07 07:34:30;;;;;;;;;;;;;;;3.33;100.00;100258.53;5588410;31;34131;-69
2023/04/07 07:37:33;;;;;;;;;;;;;;;3.37;100.00;100248.62;5588497;31;34910;-71
2023/04/07 07:40:35;;;;;;;;;;;;;;;3.33;100.00;100250.66;5574889;31;33735;-69
2023/04/07 07:43:38;;;;;;;;;;;;;;;3.12;100.00;100251.56;5588132;31;34680;-69
2023/04/07 07:46:40;;;;;;;;;;;;;;;3.13;100.00;100259.31;5588409;31;34663;-69
2023/04/07 07:49:43;;;;;;;;;;;;;;;3.30;100.00;100263.19;5588418;31;34877;-69
2023/04/07 07:52:46;;;;;;;;;;;;;;;3.47;100.00;100268.72;5588806;31;34104;-69
2023/04/07 07:55:49;;;;;;;;;;;;;;;3.62;100.00;100271.88;5588172;31;35138;-70
2023/04/07 07:58:51;;;;;;;;;;;;;;;3.91;100.00;100277.34;5574570;31;34815;-69
2023/04/07 08:01:54;;;;;;;;;;;;;;;3.89;100.00;100287.13;5568896;32;34088;-69
2023/04/07 08:04:57;;;;;;;;;;;;;;;3.77;100.00;100288.16;5568495;32;34027;-69
2023/04/07 08:08:00;;;;;;;;;;;;;;;3.96;100.00;100292.72;5567703;32;34082;-68
2023/04/07 08:11:03;;;;;;;;;;;;;;;3.76;100.00;100292.56;5579176;31;34359;-68
2023/04/07 08:14:05;;;;;;;;;;;;;;;4.06;100.00;100289.19;5588217;31;34691;-68
2023/04/07 08:17:12;;;;;;;;;;;;;;;4.21;100.00;100287.87;5588211;31;34313;-69
2023/04/07 08:20:15;;;;;;;;;;;;;;;4.26;100.00;100290.97;5588283;31;34010;-69
2023/04/07 08:23:19;;;;;;;;;;;;;;;4.31;100.00;100295.81;5588231;31;34254;-67
2023/04/07 08:26:21;;;;;;;;;;;;;;;4.36;100.00;100298.88;5574269;31;34246;-69
2023/04/07 08:29:24;;;;;;;;;;;;;;;4.37;100.00;100297.94;5587992;31;34172;-69
2023/04/07 08:32:44;;;;;;;;;;;;;;;4.24;100.00;100298.16;5588155;31;34661;-68
2023/04/07 08:35:47;;;;;;;;;;;;;;;4.38;100.00;100304.84;5587901;31;34135;-68
2023/04/07 08:38:50;;;;;;;;;;;;;;;4.48;100.00;100300.50;5588001;31;35078;-68
2023/04/07 08:41:54;;;;;;;;;;;;;;;4.69;100.00;100303.06;5587490;31;34811;-69
2023/04/07 08:44:59;;;;;;;;;;;;;;;4.81;100.00;100309.88;5572779;31;34707;-69
2023/04/07 08:48:05;;;;;;;;;;;;;;;4.87;100.00;100304.09;5567997;32;34836;-70
2023/04/07 08:51:09;;;;;;;;;;;;;;;4.86;100.00;100307.69;5568567;32;33778;-68
2023/04/07 08:54:13;;;;;;;;;;;;;;;5.06;100.00;100313.84;5568064;32;34277;-68
2023/04/07 08:57:16;;;;;;;;;;;;;;;5.13;100.00;100312.38;5568507;32;34075;-68
2023/04/07 09:00:20;;;;;;;;;;;;;;;5.06;100.00;100308.59;5568157;32;34304;-68
2023/04/07 09:03:23;;;;;;;;;;;;;;;4.89;100.00;100310.03;5554484;32;34678;-68
2023/04/07 09:06:26;;;;;;;;;;;;;;;4.89;100.00;100306.62;5554650;32;34251;-69
2023/04/07 09:09:28;;;;;;;;;;;;;;;4.78;100.00;100313.62;5568213;32;34333;-69
2023/04/07 09:12:32;;;;;;;;;;;;;;;5.52;100.00;100300.91;5568413;32;34558;-69
2023/04/07 09:15:34;;;;;;;;;;;;;;;5.98;100.00;100315.22;5572662;31;33987;-69
2023/04/07 09:18:41;;;;;;;;;;;;;;;5.78;100.00;100310.91;5568177;32;34849;-70
2023/04/07 09:21:48;;;;;;;;;;;;;;;5.95;100.00;100307.63;5567068;32;34119;-69
2023/04/07 09:24:51;;;;;;;;;;;;;;;6.00;100.00;100308.03;5568170;32;35122;-69
2023/04/07 09:27:58;;;;;;;;;;;;;;;5.91;100.00;100314.09;5573983;31;34340;-70
2023/04/07 09:31:00;;;;;;;;;;;;;;;6.45;100.00;100305.56;5587556;31;34411;-69
2023/04/07 09:34:04;;;;;;;;;;;;;;;6.29;100.00;100311.44;5587949;31;34286;-70
2023/04/07 09:37:10;;;;;;;;;;;;;;;6.41;100.00;100307.66;5573830;31;34723;-69
2023/04/07 09:40:24;;;;;;;;;;;;;;;5.75;100.00;100305.94;5558145;32;34790;-69
2023/04/07 09:43:27;;;;;;;;;;;;;;;5.53;100.00;100310.47;5555378;32;34458;-70
2023/04/07 09:46:29;;;;;;;;;;;;;;;6.37;100.00;100303.66;5554225;32;34858;-70
2023/04/07 09:49:32;;;;;;;;;;;;;;;6.64;100.00;100309.94;5568226;32;34649;-69
2023/04/07 09:52:48;;;;;;;;;;;;;;;7.40;100.00;100308.75;5567965;32;33956;-69
2023/04/07 09:55:50;;;;;;;;;;;;;;;6.98;100.00;100306.59;5567134;32;34443;-69
2023/04/07 09:58:53;;;;;;;;;;;;;;;7.05;100.00;100316.56;5567525;31;34001;-68
2023/04/07 10:01:56;;;;;;;;;;;;;;;7.30;100.00;100313.25;5567391;32;34209;-68
2023/04/07 10:04:59;;;;;;;;;;;;;;;7.66;100.00;100311.44;5566483;32;34196;-68
2023/04/07 10:08:02;;;;;;;;;;;;;;;6.59;100.00;100312.19;5567421;32;34849;-68
2023/04/07 10:11:05;;;;;;;;;;;;;;;7.11;100.00;100306.28;5567692;31;34519;-69
2023/04/07 10:14:11;;;;;;;;;;;;;;;7.91;100.00;100317.78;5580288;31;34672;-70
2023/04/07 10:17:17;;;;;;;;;;;;;;;7.50;100.00;100312.16;5560887;31;34159;-69
2023/04/07 10:20:21;;;;;;;;;;;;;;;7.50;100.00;100311.31;5571264;31;33910;-69
2023/04/07 10:23:27;;;;;;;;;;;;;;;7.47;100.00;100312.44;5571892;31;34049;-69
2023/04/07 10:26:33;;;;;;;;;;;;;;;6.87;100.00;100321.81;5574015;31;34402;-69
2023/04/07 10:29:39;;;;;;;;;;;;;;;7.52;100.00;100310.16;5573475;31;34080;-69
2023/04/07 10:32:48;;;;;;;;;;;;;;;7.58;100.00;100317.50;5580785;31;34399;-68
2023/04/07 10:36:02;;;;;;;;;;;;;;;7.34;100.00;100318.06;5583956;31;33221;-69
2023/04/07 10:39:07;;;;;;;;;;;;;;;8.55;100.00;100313.00;5566984;31;34251;-69
2023/04/07 10:42:28;;;;;;;;;;;;;;;9.53;100.00;100307.12;5567205;31;34253;-69
2023/04/07 10:45:51;;;;;;;;;;;;;;;10.10;80.91;100311.63;5582296;31;34810;-69
2023/04/07 10:49:07;;;;;;;;;;;;;;;8.08;95.85;100319.59;5576515;31;34985;-69
2023/04/07 10:52:10;;;;;;;;;;;;;;;8.61;98.98;100314.22;5570095;31;34644;-69
2023/04/07 10:55:29;;;;;;;;;;;;;;;9.27;94.68;100322.28;5567584;31;34730;-68
2023/04/07 10:58:36;;;;;;;;;;;;;;;8.69;93.96;100319.53;5584808;31;34443;-69
2023/04/07 11:01:39;;;;;;;;;;;;;;;8.86;94.56;100323.09;5568704;31;34778;-69
2023/04/07 11:04:45;;;;;;;;;;;;;;;8.81;85.94;100322.75;5566848;31;34815;-70
2023/04/07 11:07:50;;;;;;;;;;;;;;;7.90;93.73;100324.87;5567341;31;34153;-69
2023/04/07 11:10:52;;;;;;;;;;;;;;;7.37;99.81;100315.13;5583460;31;34761;-68
2023/04/07 11:13:56;;;;;;;;;;;;;;;7.58;100.00;100314.03;5581017;31;33815;-68
2023/04/07 11:17:00;;;;;;;;;;;;;;;8.04;100.00;100319.06;5566905;31;33203;-70
2023/04/07 11:20:03;;;;;;;;;;;;;;;8.34;100.00;100317.81;5566489;32;34064;-69
2023/04/07 11:23:05;;;;;;;;;;;;;;;8.43;96.76;100324.00;5566771;32;34152;-69
2023/04/07 11:26:12;;;;;;;;;;;;;;;8.33;90.32;100323.28;5566752;32;34248;-68
2023/04/07 11:29:14;;;;;;;;;;;;;;;8.58;93.18;100327.72;5566906;32;34133;-70
2023/04/07 11:32:21;;;;;;;;;;;;;;;8.45;93.19;100327.31;5566772;32;33908;-69
2023/04/07 11:35:26;;;;;;;;;;;;;;;8.61;92.73;100314.22;5562368;31;34051;-69
2023/04/07 11:38:34;;;;;;;;;;;;;;;8.28;93.82;100318.41;5554068;32;34734;-69
2023/04/07 11:41:44;;;;;;;;;;;;;;;8.54;90.71;100323.75;5552183;32;34097;-70
2023/04/07 11:44:47;;;;;;;;;;;;;;;8.30;89.73;100327.06;5566057;31;34163;-69
2023/04/07 11:47:49;;;;;;;;;;;;;;;8.09;94.04;100318.59;5575127;31;33896;-68
2023/04/07 11:50:53;;;;;;;;;;;;;;;8.28;94.20;100319.25;5581193;31;34549;-69
2023/04/07 11:53:56;;;;;;;;;;;;;;;8.30;90.80;100316.47;5585940;31;34105;-70
2023/04/07 11:56:58;;;;;;;;;;;;;;;8.06;97.32;100310.97;5568270;31;34283;-69
2023/04/07 12:00:05;;;;;;;;;;;;;;;8.24;98.81;100314.41;5570106;31;33924;-70
2023/04/07 12:03:13;;;;;;;;;;;;;;;7.70;94.18;100318.91;5566136;32;33849;-69
2023/04/07 12:06:26;;;;;;;;;;;;;;;7.26;100.00;100322.44;5566079;32;34997;-69
2023/04/07 12:09:31;;;;;;;;;;;;;;;7.50;99.90;100319.22;5565922;32;34856;-69
2023/04/07 12:12:34;;;;;;;;;;;;;;;7.70;100.00;100324.19;5553022;31;34640;-69
2023/04/07 12:15:36;;;;;;;;;;;;;;;7.68;100.00;100323.53;5585536;31;33965;-68
2023/04/07 12:18:39;;;;;;;;;;;;;;;7.64;98.16;100321.34;5574525;31;34775;-69
2023/04/07 12:21:42;;;;;;;;;;;;;;;7.51;99.06;100318.22;5568763;31;34365;-68
2023/04/07 12:24:45;;;;;;;;;;;;;;;7.05;100.00;100313.94;5577683;31;33904;-68
2023/04/07 12:27:47;;;;;;;;;;;;;;;7.03;100.00;100307.97;5568599;32;34577;-69
2023/04/07 12:30:50;;;;;;;;;;;;;;;7.23;100.00;100304.25;5583450;31;34321;-68
2023/04/07 12:33:52;;;;;;;;;;;;;;;7.31;94.97;100307.81;5574223;31;34110;-68
2023/04/07 12:36:55;;;;;;;;;;;;;;;7.21;98.92;100312.31;5573611;31;34762;-68
2023/04/07 12:39:58;;;;;;;;;;;;;;;6.96;96.92;100307.75;5587879;31;34747;-68
2023/04/07 12:43:01;;;;;;;;;;;;;;;7.02;100.00;100306.34;5574321;31;34798;-68
2023/04/07 12:46:04;;;;;;;;;;;;;;;7.15;100.00;100314.72;5588232;31;34086;-68
2023/04/07 12:49:07;;;;;;;;;;;;;;;6.82;100.00;100310.88;5588013;31;34041;-68
2023/04/07 12:52:09;;;;;;;;;;;;;;;6.91;100.00;100318.72;5568045;31;33296;-69
2023/04/07 12:55:13;;;;;;;;;;;;;;;7.20;100.00;100317.75;5568386;32;34239;-69
2023/04/07 12:58:16;;;;;;;;;;;;;;;7.07;96.04;100318.06;5568476;32;34948;-69
2023/04/07 13:01:19;;;;;;;;;;;;;;;7.07;99.17;100317.28;5570156;31;34865;-69
2023/04/07 13:04:23;;;;;;;;;;;;;;;6.95;100.00;100320.09;5568064;32;34266;-69
2023/04/07 13:07:25;;;;;;;;;;;;;;;6.92;100.00;100324.84;5568398;32;34580;-69
2023/04/07 13:10:28;;;;;;;;;;;;;;;6.96;100.00;100320.94;5583885;31;34001;-69
2023/04/07 13:13:31;;;;;;;;;;;;;;;6.74;100.00;100322.13;5569570;31;34279;-68
2023/04/07 13:16:33;;;;;;;;;;;;;;;6.75;100.00;100321.16;5567322;31;34806;-70
2023/04/07 13:19:36;;;;;;;;;;;;;;;6.95;100.00;100320.09;5567961;32;34337;-68
2023/04/07 13:22:39;;;;;;;;;;;;;;;6.98;100.00;100319.78;5561959;32;35120;-69
2023/04/07 13:25:57;;;;;;;;;;;;;;;7.04;100.00;100314.91;5568043;32;34179;-69
2023/04/07 13:28:59;;;;;;;;;;;;;;;6.53;100.00;100321.50;5567350;32;34085;-70
2023/04/07 13:32:05;;;;;;;;;;;;;;;6.41;100.00;100322.63;5569017;31;34217;-69
2023/04/07 13:35:08;;;;;;;;;;;;;;;6.81;100.00;100317.94;5577507;31;34903;-69
2023/04/07 13:38:11;;;;;;;;;;;;;;;6.98;100.00;100318.97;5587560;31;34246;-70
2023/04/07 13:41:13;;;;;;;;;;;;;;;7.06;100.00;100316.44;5583750;31;34217;-72
2023/04/07 13:44:15;;;;;;;;;;;;;;;7.08;100.00;100324.19;5549813;32;34650;-69
2023/04/07 13:47:18;;;;;;;;;;;;;;;7.07;100.00;100330.47;5558378;32;34331;-70
2023/04/07 13:50:21;;;;;;;;;;;;;;;7.07;100.00;100330.47;5549166;32;34099;-69
2023/04/07 13:53:23;;;;;;;;;;;;;;;6.95;100.00;100335.09;5552256;32;34268;-69
2023/04/07 13:56:26;;;;;;;;;;;;;;;6.58;100.00;100329.00;5558626;32;34538;-69
2023/04/07 13:59:28;;;;;;;;;;;;;;;6.66;100.00;100331.72;5556538;32;34066;-70
2023/04/07 14:02:31;;;;;;;;;;;;;;;6.68;100.00;100325.31;5557381;32;33934;-69
2023/04/07 14:05:34;;;;;;;;;;;;;;;6.87;100.00;100332.34;5557911;32;33296;-70
2023/04/07 14:08:37;;;;;;;;;;;;;;;6.81;100.00;100336.41;5549640;32;35412;-70
2023/04/07 14:11:40;;;;;;;;;;;;;;;6.83;100.00;100329.16;5558064;32;34019;-70
2023/04/07 14:14:42;;;;;;;;;;;;;;;6.82;100.00;100331.97;5554661;32;33853;-69
2023/04/07 14:17:45;;;;;;;;;;;;;;;6.66;100.00;100334.38;5556160;32;34700;-69
2023/04/07 14:20:47;;;;;;;;;;;;;;;6.90;100.00;100332.06;5553129;32;33927;-69
2023/04/07 14:23:50;;;;;;;;;;;;;;;6.91;100.00;100325.81;5564889;32;33969;-68
2023/04/07 14:26:53;;;;;;;;;;;;;;;6.90;100.00;100332.06;5566623;32;34771;-69
2023/04/07 14:29:58;;;;;;;;;;;;;;;6.87;100.00;100335.78;5567293;32;34627;-70
2023/04/07 14:33:00;;;;;;;;;;;;;;;6.91;100.00;100331.91;5566370;32;33916;-69
2023/04/07 14:36:06;;;;;;;;;;;;;;;6.66;100.00;100335.19;5567495;32;34083;-69
2023/04/07 14:39:09;;;;;;;;;;;;;;;6.41;100.00;100343.72;5557276;32;34153;-69
2023/04/07 14:42:11;;;;;;;;;;;;;;;6.62;100.00;100347.00;5547337;32;33900;-70
2023/04/07 14:45:14;;;;;;;;;;;;;;;6.86;100.00;100347.34;5564469;32;33808;-69
2023/04/07 14:48:17;;;;;;;;;;;;;;;6.77;100.00;100347.38;5567448;32;34147;-70
2023/04/07 14:51:20;;;;;;;;;;;;;;;6.57;100.00;100343.13;5567316;32;34828;-69
2023/04/07 14:54:23;;;;;;;;;;;;;;;6.56;100.00;100344.94;5567150;32;34777;-69
2023/04/07 14:57:28;;;;;;;;;;;;;;;6.57;100.00;100340.50;5566295;32;34039;-70
2023/04/07 15:00:30;;;;;;;;;;;;;;;6.66;100.00;100344.91;5566946;32;34157;-69
2023/04/07 15:03:35;;;;;;;;;;;;;;;6.65;100.00;100344.06;5567234;32;34236;-69
2023/04/07 15:06:42;;;;;;;;;;;;;;;6.81;100.00;100339.03;5571099;31;34129;-70
2023/04/07 15:09:46;;;;;;;;;;;;;;;6.51;100.00;100349.81;5580763;31;34122;-70
2023/04/07 15:12:49;;;;;;;;;;;;;;;6.61;100.00;100353.25;5586519;31;34096;-69
2023/04/07 15:15:51;;;;;;;;;;;;;;;6.67;100.00;100351.84;5586399;31;34500;-70
2023/04/07 15:18:55;;;;;;;;;;;;;;;6.59;100.00;100351.72;5581839;31;34067;-69
2023/04/07 15:22:00;;;;;;;;;;;;;;;6.41;100.00;100349.00;5586321;31;34232;-69
2023/04/07 15:25:03;;;;;;;;;;;;;;;6.28;100.00;100348.47;5586587;31;34824;-69
2023/04/07 15:28:06;;;;;;;;;;;;;;;6.21;100.00;100350.81;5572568;31;34046;-69
2023/04/07 15:31:10;;;;;;;;;;;;;;;6.24;100.00;100357.62;5586364;31;34807;-69
2023/04/07 15:34:12;;;;;;;;;;;;;;;6.37;100.00;100348.44;5567503;31;34858;-69
2023/04/07 15:37:17;;;;;;;;;;;;;;;6.15;100.00;100348.75;5566482;32;34193;-69
2023/04/07 15:40:20;;;;;;;;;;;;;;;6.24;100.00;100352.34;5566511;32;34971;-68
2023/04/07 15:43:23;;;;;;;;;;;;;;;6.29;100.00;100353.59;5565812;32;34229;-69
2023/04/07 15:46:25;;;;;;;;;;;;;;;6.31;100.00;100341.09;5566425;32;34286;-69